Terminal Aerodrome Forecast
Issued by NWS Corpus Christi, TX

Home | Current Version | Previous Version | Text Only | Print | Product List | Glossary On
Versions: 1 2 3 4 5 6 7 8 9 10 11 12 13
601
FTUS44 KCRP 190522
TAFCRP
TAF
KCRP 190522Z 1906/2006 01016G23KT P6SM SKC
     FM191700 04014KT P6SM FEW250
     FM192200 05010KT P6SM BKN250=

USA.gov is the U.S. government's official web portal to all federal, state and local government web resources and services.